Time;durP1;ratioP1;P1;durP2;ratioP2;P2;SDS_P1;SDS_P2;PMS_P1;PMS_P2;Temp;Humidity;BMP_temperature;BMP_pressure;BME280_temperature;BME280_humidity;BME280_pressure;Samples;Min_cycle;Max_cycle;Signal;HPM_P1;HPM_P2
2022/05/12 05:39:30;;;;;;;;;;;;;;;15.07;60.03;100495.63;5032957;28;1670;-91
2022/05/12 05:42:02;;;;;;;;;;;;;;;15.15;58.89;100497.66;5016672;28;1311;-91
2022/05/12 05:44:32;;;;;;;;;;;;;;;15.17;58.36;100500.09;5015451;28;1747;-91
2022/05/12 05:46:58;;;;;;;;;;;;;;;15.02;60.71;100502.09;5016522;28;1307;-90
2022/05/12 05:49:23;;;;;;;;;;;;;;;14.92;59.57;100501.50;5016245;28;1771;-91
2022/05/12 05:54:34;;;;;;;;;;;;;;;14.84;59.73;100516.81;5034052;28;1616;-91
2022/05/12 05:57:00;;;;;;;;;;;;;;;14.80;60.34;100510.28;5016310;28;1638;-91
2022/05/12 05:59:25;;;;;;;;;;;;;;;14.95;60.08;100512.72;5012937;28;1289;-91
2022/05/12 06:01:50;;;;;;;;;;;;;;;15.10;60.20;100514.31;4996806;28;1236;-92
2022/05/12 06:04:17;;;;;;;;;;;;;;;14.78;60.43;100515.31;5011039;28;1717;-91
2022/05/12 06:06:42;;;;;;;;;;;;;;;14.95;60.58;100522.94;5016410;28;1324;-92
2022/05/12 06:09:07;;;;;;;;;;;;;;;15.10;60.07;100525.34;5016241;28;1645;-92
2022/05/12 06:11:33;;;;;;;;;;;;;;;15.13;60.17;100533.03;5016752;28;1319;-90
2022/05/12 06:13:58;;;;;;;;;;;;;;;15.09;59.56;100537.50;5015583;28;1965;-91
2022/05/12 06:16:23;;;;;;;;;;;;;;;15.23;59.20;100529.19;5010638;28;1704;-91
2022/05/12 06:18:49;;;;;;;;;;;;;;;15.28;57.70;100538.19;5017246;28;1362;-92
2022/05/12 06:21:14;;;;;;;;;;;;;;;15.21;60.14;100546.06;5022263;28;1264;-92
2022/05/12 06:23:39;;;;;;;;;;;;;;;15.39;58.98;100549.81;5024568;28;1484;-90
2022/05/12 06:26:09;;;;;;;;;;;;;;;15.36;59.48;100548.47;5025125;28;1293;-92
2022/05/12 06:28:34;;;;;;;;;;;;;;;15.46;59.93;100545.47;5040666;28;1194;-91
2022/05/12 06:30:59;;;;;;;;;;;;;;;15.46;58.58;100553.75;5026256;28;1386;-92
2022/05/12 06:33:24;;;;;;;;;;;;;;;15.51;59.09;100564.66;5026835;28;1898;-92
2022/05/12 06:35:52;;;;;;;;;;;;;;;15.52;58.18;100568.25;5025174;28;901;-91
2022/05/12 06:38:18;;;;;;;;;;;;;;;15.51;58.61;100578.44;5042832;28;1671;-92
2022/05/12 06:40:44;;;;;;;;;;;;;;;15.36;58.85;100587.09;5023152;28;1699;-91
2022/05/12 06:43:09;;;;;;;;;;;;;;;15.63;58.54;100577.94;5020167;28;1358;-92
2022/05/12 06:45:35;;;;;;;;;;;;;;;15.81;57.90;100571.44;5022086;28;1227;-91
2022/05/12 06:48:01;;;;;;;;;;;;;;;15.84;58.06;100586.53;5009104;28;1461;-92
2022/05/12 06:50:28;;;;;;;;;;;;;;;15.91;59.24;100589.66;5022577;28;1736;-92
2022/05/12 06:52:53;;;;;;;;;;;;;;;15.91;57.18;100592.44;5016353;28;1871;-92
2022/05/12 06:55:19;;;;;;;;;;;;;;;15.87;56.66;100594.19;5021068;28;1337;-91
2022/05/12 06:57:45;;;;;;;;;;;;;;;15.77;56.31;100599.97;5023140;28;1508;-92
2022/05/12 07:00:10;;;;;;;;;;;;;;;15.88;56.62;100604.13;5010489;28;1325;-91
2022/05/12 07:02:36;;;;;;;;;;;;;;;15.85;58.18;100600.03;5023572;28;1250;-92
2022/05/12 07:05:03;;;;;;;;;;;;;;;15.74;55.72;100604.16;5024225;28;1374;-92
2022/05/12 07:07:28;;;;;;;;;;;;;;;15.81;56.63;100601.81;5024068;28;1642;-90
2022/05/12 07:09:54;;;;;;;;;;;;;;;15.82;55.67;100608.91;5021043;28;1508;-91
2022/05/12 07:12:20;;;;;;;;;;;;;;;15.62;56.43;100611.38;5018448;28;1941;-91
2022/05/12 07:14:45;;;;;;;;;;;;;;;15.48;56.91;100620.44;5011609;28;1561;-91
2022/05/12 07:17:10;;;;;;;;;;;;;;;15.66;57.57;100617.88;5018780;28;1454;-90
2022/05/12 07:19:35;;;;;;;;;;;;;;;15.73;56.46;100623.81;5030412;28;1473;-90
2022/05/12 07:27:29;;;;;;;;;;;;;;;15.69;57.00;100637.41;5031468;28;1442;-91
2022/05/12 07:29:54;;;;;;;;;;;;;;;15.65;56.67;100652.16;5018435;28;1581;-90
2022/05/12 07:32:19;;;;;;;;;;;;;;;15.69;56.27;100642.09;5020000;28;1948;-90
2022/05/12 07:34:45;;;;;;;;;;;;;;;15.56;57.98;100648.47;5020649;28;1177;-91
2022/05/12 07:37:10;;;;;;;;;;;;;;;15.57;57.32;100656.44;5019196;28;1802;-90
2022/05/12 07:39:36;;;;;;;;;;;;;;;15.15;58.15;100650.13;5015116;28;1974;-92
2022/05/12 07:42:02;;;;;;;;;;;;;;;15.37;56.25;100676.16;5023597;28;1975;-92
2022/05/12 07:44:34;;;;;;;;;;;;;;;15.46;57.27;100661.34;5016125;28;1653;-91
2022/05/12 07:47:04;;;;;;;;;;;;;;;15.69;54.81;100662.25;5017252;28;1777;-91
2022/05/12 07:49:32;;;;;;;;;;;;;;;15.74;55.81;100667.63;5021111;28;1642;-91
2022/05/12 07:51:58;;;;;;;;;;;;;;;16.03;55.78;100658.97;5036188;28;1208;-92
2022/05/12 07:54:24;;;;;;;;;;;;;;;16.14;55.42;100667.81;5020177;28;1315;-91
2022/05/12 07:56:49;;;;;;;;;;;;;;;16.05;55.13;100673.28;5021084;28;1314;-91
2022/05/12 07:59:14;;;;;;;;;;;;;;;15.80;55.16;100665.59;5039616;28;822;-91
2022/05/12 11:45:19;;;;;;;;;;;;;;;18.54;41.40;100689.84;5036840;28;2371;-92
2022/05/12 11:47:56;;;;;;;;;;;;;;;18.59;38.05;100677.81;5022287;28;1771;-91
2022/05/12 11:50:40;;;;;;;;;;;;;;;18.24;41.58;100681.75;5022311;28;1620;-91
2022/05/12 11:53:23;;;;;;;;;;;;;;;18.58;40.04;100680.91;5026511;28;1973;-92
2022/05/12 11:55:56;;;;;;;;;;;;;;;18.67;40.81;100676.16;5021712;28;1508;-92
2022/05/12 11:58:42;;;;;;;;;;;;;;;18.73;38.46;100675.66;5019201;28;1323;-91
2022/05/12 12:01:09;;;;;;;;;;;;;;;18.68;39.97;100675.03;4998958;28;1681;-92
2022/05/12 12:03:36;;;;;;;;;;;;;;;19.00;39.88;100682.75;5018021;28;1403;-92
2022/05/12 12:06:03;;;;;;;;;;;;;;;19.01;40.55;100676.06;5025940;28;1613;-91
2022/05/12 12:08:32;;;;;;;;;;;;;;;19.05;39.61;100665.13;5033311;28;1508;-91
2022/05/12 12:11:12;;;;;;;;;;;;;;;19.01;39.54;100669.69;5043570;28;1468;-92
2022/05/12 12:13:37;;;;;;;;;;;;;;;18.85;41.72;100664.69;5018739;28;1922;-92
2022/05/12 12:16:15;;;;;;;;;;;;;;;18.63;41.69;100662.13;5027918;28;1762;-91
2022/05/12 12:18:40;;;;;;;;;;;;;;;18.66;40.87;100657.91;5015045;28;1507;-93
2022/05/12 12:21:26;;;;;;;;;;;;;;;18.52;42.13;100661.66;5038560;28;937;-93
2022/05/12 12:24:03;;;;;;;;;;;;;;;18.62;42.41;100657.75;5021967;28;1726;-92
2022/05/12 12:26:32;;;;;;;;;;;;;;;18.94;42.59;100649.97;5029950;28;1225;-92
2022/05/12 12:28:59;;;;;;;;;;;;;;;19.08;42.03;100648.59;5022758;28;1508;-92
2022/05/12 12:31:26;;;;;;;;;;;;;;;19.26;43.05;100644.59;5022947;28;1284;-91
2022/05/12 12:34:10;;;;;;;;;;;;;;;19.32;39.52;100645.19;5020937;28;1965;-91
2022/05/12 12:36:35;;;;;;;;;;;;;;;19.33;39.68;100638.50;5023309;28;1551;-91
2022/05/12 12:39:00;;;;;;;;;;;;;;;19.24;40.09;100633.00;5056838;28;1304;-93
2022/05/12 12:41:31;;;;;;;;;;;;;;;19.07;37.31;100646.16;5018980;28;1594;-92
2022/05/12 12:43:59;;;;;;;;;;;;;;;19.06;39.43;100650.88;5027727;28;1343;-92
2022/05/12 12:46:26;;;;;;;;;;;;;;;19.17;38.46;100648.56;5026109;28;1224;-92
2022/05/12 12:49:11;;;;;;;;;;;;;;;19.37;38.16;100635.88;5051720;28;1580;-91
2022/05/12 12:51:39;;;;;;;;;;;;;;;19.32;39.34;100638.84;5023704;28;1531;-91
2022/05/12 12:57:05;;;;;;;;;;;;;;;19.93;38.99;100631.72;5037380;28;1420;-92
2022/05/12 12:59:33;;;;;;;;;;;;;;;19.97;39.95;100625.16;5019963;28;1744;-92
2022/05/12 13:02:00;;;;;;;;;;;;;;;20.05;37.73;100625.44;5040509;28;837;-93
2022/05/12 13:04:27;;;;;;;;;;;;;;;19.87;35.90;100627.53;5017916;28;1464;-91
2022/05/12 13:06:53;;;;;;;;;;;;;;;19.77;36.52;100616.84;5039571;28;1208;-92
2022/05/12 13:09:23;;;;;;;;;;;;;;;19.71;36.83;100630.13;5040844;28;1173;-93
2022/05/12 13:11:48;;;;;;;;;;;;;;;19.90;36.75;100629.66;5038844;28;1259;-92
2022/05/12 13:14:15;;;;;;;;;;;;;;;20.00;35.97;100616.13;5037563;28;1906;-93
2022/05/12 13:16:42;;;;;;;;;;;;;;;20.55;36.10;100623.31;5038532;28;1493;-93
2022/05/12 13:19:08;;;;;;;;;;;;;;;21.17;33.69;100611.09;5031314;28;1720;-92
2022/05/12 13:21:41;;;;;;;;;;;;;;;23.39;32.79;100607.28;5018921;28;1427;-93
2022/05/12 13:24:12;;;;;;;;;;;;;;;23.46;29.45;100620.63;5034024;28;1205;-92
2022/05/12 13:26:37;;;;;;;;;;;;;;;22.66;32.25;100618.25;5041731;28;1359;-93
2022/05/12 13:29:04;;;;;;;;;;;;;;;23.21;31.11;100617.28;5038874;28;1241;-93
2022/05/12 13:31:37;;;;;;;;;;;;;;;24.13;29.54;100607.31;5057394;28;739;-93
2022/05/12 13:34:20;;;;;;;;;;;;;;;24.11;30.18;100612.47;5040964;28;1924;-93
2022/05/12 13:36:47;;;;;;;;;;;;;;;25.37;28.58;100594.69;5033550;28;1225;-93
2022/05/12 13:39:32;;;;;;;;;;;;;;;26.02;28.90;100602.81;5023012;28;1191;-93
2022/05/12 13:42:00;;;;;;;;;;;;;;;26.00;26.93;100590.00;5024286;28;1103;-93
2022/05/12 13:44:27;;;;;;;;;;;;;;;25.04;28.44;100599.00;5019498;28;1472;-93
2022/05/12 13:46:54;;;;;;;;;;;;;;;25.52;27.10;100599.34;5050267;28;1656;-93
2022/05/12 13:49:31;;;;;;;;;;;;;;;25.40;29.41;100596.75;5043605;28;1129;-92
2022/05/12 13:52:13;;;;;;;;;;;;;;;24.24;30.17;100583.19;5043525;28;1402;-92
2022/05/12 13:54:39;;;;;;;;;;;;;;;24.87;29.59;100585.50;5057004;28;1890;-92
2022/05/12 13:57:20;;;;;;;;;;;;;;;24.14;29.14;100562.22;5040924;28;1221;-94
2022/05/12 13:59:54;;;;;;;;;;;;;;;23.14;31.28;100591.16;5040869;28;1184;-93
2022/05/12 14:02:24;;;;;;;;;;;;;;;22.75;32.66;100585.41;5007964;28;1349;-93
2022/05/12 14:04:49;;;;;;;;;;;;;;;22.86;32.57;100594.06;5042925;28;1750;-92
2022/05/12 14:07:25;;;;;;;;;;;;;;;22.77;32.54;100583.09;5042876;28;1243;-93
2022/05/12 14:09:55;;;;;;;;;;;;;;;22.47;33.58;100591.03;5042113;28;1385;-93
2022/05/12 14:12:22;;;;;;;;;;;;;;;22.56;32.12;100576.91;5044882;28;1220;-94
2022/05/12 14:20:28;;;;;;;;;;;;;;;22.23;33.79;100577.22;5043684;28;679;-93
2022/05/12 14:22:53;;;;;;;;;;;;;;;21.62;35.72;100574.69;5024671;28;1300;-92
2022/05/12 14:25:19;;;;;;;;;;;;;;;22.54;34.18;100570.91;5020217;28;1136;-93
2022/05/12 14:27:44;;;;;;;;;;;;;;;22.87;33.37;100568.59;5038445;28;1659;-93
2022/05/12 14:30:10;;;;;;;;;;;;;;;22.67;32.99;100563.25;5033391;28;1422;-93
2022/05/12 14:32:37;;;;;;;;;;;;;;;22.43;32.62;100569.81;5041474;28;1910;-93
2022/05/12 14:35:03;;;;;;;;;;;;;;;21.88;33.36;100577.03;5040320;28;1308;-93
2022/05/12 14:37:31;;;;;;;;;;;;;;;21.59;34.58;100557.88;5039372;28;1360;-92
2022/05/12 14:39:56;;;;;;;;;;;;;;;21.59;36.01;100557.88;5039964;28;1365;-93
2022/05/12 14:42:21;;;;;;;;;;;;;;;22.76;32.65;100558.31;5039254;28;1520;-93
2022/05/12 14:44:46;;;;;;;;;;;;;;;23.37;33.14;100555.78;5060016;28;893;-93
2022/05/12 14:47:17;;;;;;;;;;;;;;;23.21;34.13;100555.81;5042819;28;1324;-93
2022/05/12 14:49:44;;;;;;;;;;;;;;;22.76;34.59;100558.31;5043647;28;1347;-92
2022/05/12 14:52:14;;;;;;;;;;;;;;;23.67;34.91;100551.25;5043578;28;1197;-92
2022/05/12 14:54:41;;;;;;;;;;;;;;;23.17;34.74;100559.69;5039414;28;1898;-92
2022/05/12 14:57:08;;;;;;;;;;;;;;;23.65;33.10;100548.03;5022859;28;1334;-93
2022/05/12 14:59:33;;;;;;;;;;;;;;;23.75;30.61;100541.03;5023148;28;1352;-92
2022/05/12 15:01:59;;;;;;;;;;;;;;;22.94;32.37;100540.84;5024003;28;1221;-92
2022/05/12 15:04:27;;;;;;;;;;;;;;;22.35;34.20;100538.13;5023464;28;1363;-93
2022/05/12 15:06:52;;;;;;;;;;;;;;;22.31;34.29;100544.78;5025001;28;1299;-92
2022/05/12 15:09:18;;;;;;;;;;;;;;;22.93;33.35;100539.22;5023891;28;1801;-93
2022/05/12 15:11:43;;;;;;;;;;;;;;;22.82;34.30;100540.13;5032145;28;1372;-93
2022/05/12 15:14:08;;;;;;;;;;;;;;;22.27;35.35;100531.56;5022554;28;1918;-92
2022/05/12 15:16:33;;;;;;;;;;;;;;;22.11;35.29;100543.88;5022859;28;1282;-93
2022/05/12 15:18:59;;;;;;;;;;;;;;;22.02;34.31;100529.28;5037886;28;1753;-92
2022/05/12 15:21:24;;;;;;;;;;;;;;;21.90;34.36;100546.84;5045363;28;1341;-93
2022/05/12 15:23:49;;;;;;;;;;;;;;;22.24;33.92;100546.22;5037113;28;1560;-93
2022/05/12 15:26:16;;;;;;;;;;;;;;;22.45;33.83;100545.16;5044105;28;1196;-92
2022/05/12 15:28:42;;;;;;;;;;;;;;;22.08;34.13;100525.88;5044391;28;1248;-93
2022/05/12 15:31:07;;;;;;;;;;;;;;;22.44;35.07;100538.78;5043154;28;1380;-93
2022/05/12 15:33:32;;;;;;;;;;;;;;;22.13;33.33;100533.16;5042126;28;1894;-93
2022/05/12 15:35:58;;;;;;;;;;;;;;;21.71;34.03;100532.75;5043211;28;1444;-92
2022/05/12 15:38:24;;;;;;;;;;;;;;;21.98;34.68;100522.78;5028055;28;1587;-92
2022/05/12 15:40:50;;;;;;;;;;;;;;;22.18;34.12;100533.72;5028992;28;1397;-92
2022/05/12 15:43:46;;;;;;;;;;;;;;;;;;;;;
2022/05/12 15:46:04;;;;;;;;;;;;;;;22.60;34.86;100531.22;5052739;28;1459;-93
2022/05/12 15:48:29;;;;;;;;;;;;;;;22.38;32.71;100536.59;5032722;28;1766;-92
2022/05/12 15:50:54;;;;;;;;;;;;;;;21.85;35.58;100538.75;5031546;28;1392;-91
2022/05/12 15:53:20;;;;;;;;;;;;;;;21.61;34.27;100545.19;5017806;28;1910;-91
2022/05/12 15:55:46;;;;;;;;;;;;;;;21.84;36.10;100549.06;5021658;28;1296;-91
2022/05/12 15:58:12;;;;;;;;;;;;;;;21.73;35.35;100538.78;5019136;28;1306;-92
2022/05/12 16:00:38;;;;;;;;;;;;;;;21.75;35.02;100534.47;5018920;28;1464;-92
2022/05/12 16:03:03;;;;;;;;;;;;;;;21.52;35.24;100531.41;5045035;28;1015;-91
2022/05/12 16:05:29;;;;;;;;;;;;;;;21.78;34.85;100532.94;5021630;28;1429;-90
2022/05/12 16:07:54;;;;;;;;;;;;;;;21.95;35.65;100526.28;5018957;28;1204;-91
2022/05/12 16:10:21;;;;;;;;;;;;;;;22.19;36.26;100531.72;5010474;28;1472;-91
2022/05/12 16:12:58;;;;;;;;;;;;;;;22.02;35.18;100524.50;5019123;28;1969;-90
2022/05/12 16:15:27;;;;;;;;;;;;;;;21.97;35.70;100519.19;5019192;28;1293;-90
2022/05/12 16:17:52;;;;;;;;;;;;;;;22.14;36.91;100520.81;5019162;28;1483;-90
2022/05/12 16:20:18;;;;;;;;;;;;;;;22.29;35.68;100525.59;5038733;28;1370;-91
2022/05/12 16:22:44;;;;;;;;;;;;;;;21.85;35.51;100519.22;5052757;28;1414;-92
2022/05/12 16:25:10;;;;;;;;;;;;;;;22.00;36.07;100526.84;5039282;28;1415;-92
2022/05/12 16:27:35;;;;;;;;;;;;;;;22.25;35.64;100528.31;5028207;28;1511;-92
2022/05/12 16:30:06;;;;;;;;;;;;;;;21.96;34.76;100522.28;5051228;28;1220;-93
2022/05/12 16:32:31;;;;;;;;;;;;;;;21.86;35.32;100518.84;5029115;28;1897;-91
2022/05/12 16:34:57;;;;;;;;;;;;;;;21.89;35.01;100517.34;5020411;28;1268;-92
2022/05/12 16:37:23;;;;;;;;;;;;;;;21.87;34.48;100520.47;5029055;28;1367;-92
2022/05/12 16:39:48;;;;;;;;;;;;;;;21.92;36.90;100524.19;5031461;28;1199;-93
2022/05/12 16:42:14;;;;;;;;;;;;;;;21.56;36.24;100514.81;5046434;28;1224;-93
2022/05/12 16:44:39;;;;;;;;;;;;;;;21.46;36.45;100509.75;5011196;28;1624;-92
2022/05/12 16:47:04;;;;;;;;;;;;;;;21.67;35.94;100526.28;5013720;28;1500;-93
2022/05/12 16:49:37;;;;;;;;;;;;;;;21.86;35.49;100520.84;5019839;28;1324;-93
2022/05/12 16:52:04;;;;;;;;;;;;;;;21.81;35.77;100516.34;5014304;28;1582;-93
2022/05/12 16:54:30;;;;;;;;;;;;;;;21.60;35.64;100517.72;5037480;28;1968;-92
2022/05/12 16:56:57;;;;;;;;;;;;;;;21.55;36.88;100513.19;5022603;28;1293;-93
2022/05/12 16:59:23;;;;;;;;;;;;;;;21.41;37.39;100513.59;5031159;28;1648;-93
2022/05/12 17:01:48;;;;;;;;;;;;;;;21.44;35.54;100512.88;5013554;28;1471;-92
2022/05/12 17:04:13;;;;;;;;;;;;;;;21.70;36.11;100512.44;5027738;28;1516;-93
2022/05/12 17:06:38;;;;;;;;;;;;;;;21.87;36.91;100522.44;5015858;28;1670;-93
2022/05/12 17:09:03;;;;;;;;;;;;;;;21.73;35.19;100516.50;5045652;28;1775;-93
2022/05/12 17:11:28;;;;;;;;;;;;;;;21.64;34.96;100516.63;5024091;28;1237;-93
2022/05/12 17:13:54;;;;;;;;;;;;;;;21.49;36.16;100509.84;5005530;28;1932;-92
2022/05/12 17:16:22;;;;;;;;;;;;;;;21.22;36.31;100513.41;5019357;28;1288;-93
2022/05/12 17:18:48;;;;;;;;;;;;;;;21.39;35.94;100509.53;5019005;28;1790;-93
2022/05/12 17:21:14;;;;;;;;;;;;;;;21.31;36.76;100507.72;5021818;28;1505;-93
2022/05/12 17:23:39;;;;;;;;;;;;;;;21.37;35.92;100501.53;5038963;28;1452;-93
2022/05/12 17:26:04;;;;;;;;;;;;;;;21.56;35.95;100502.88;5045242;28;1287;-92
2022/05/12 17:28:30;;;;;;;;;;;;;;;21.30;36.66;100498.53;5044659;28;1185;-93
2022/05/12 17:31:01;;;;;;;;;;;;;;;21.30;36.76;100494.94;5034245;28;1878;-92
2022/05/12 17:33:29;;;;;;;;;;;;;;;21.28;37.43;100498.06;5017635;28;1964;-92
2022/05/12 17:36:03;;;;;;;;;;;;;;;21.25;38.73;100493.22;5017423;28;1178;-92
2022/05/12 17:38:29;;;;;;;;;;;;;;;21.17;38.26;100496.97;5016898;28;1324;-91
2022/05/12 17:40:55;;;;;;;;;;;;;;;21.43;36.97;100502.94;5016397;28;1573;-92
2022/05/12 17:43:36;;;;;;;;;;;;;;;21.06;38.59;100496.59;5017065;28;1265;-92
2022/05/12 17:46:03;;;;;;;;;;;;;;;21.00;39.42;100499.97;5015847;28;1411;-91
2022/05/12 17:48:29;;;;;;;;;;;;;;;20.81;38.66;100511.72;5044679;28;1307;-93
2022/05/12 17:50:55;;;;;;;;;;;;;;;20.90;40.34;100509.63;5055356;28;1027;-92
2022/05/12 17:53:22;;;;;;;;;;;;;;;20.75;38.83;100508.38;5055009;28;1974;-93
2022/05/12 17:55:48;;;;;;;;;;;;;;;20.76;39.71;100506.38;5038720;28;1367;-93
2022/05/12 17:58:14;;;;;;;;;;;;;;;20.69;39.44;100504.16;5038510;28;1286;-92
2022/05/12 18:00:55;;;;;;;;;;;;;;;20.64;39.73;100507.19;5032050;28;1965;-93
2022/05/12 18:03:20;;;;;;;;;;;;;;;20.60;38.99;100509.03;5036737;28;1058;-92
2022/05/12 18:05:46;;;;;;;;;;;;;;;20.61;39.38;100507.88;5036981;28;802;-93
2022/05/12 18:08:12;;;;;;;;;;;;;;;20.38;40.41;100499.19;5021675;28;1343;-93
2022/05/12 18:10:38;;;;;;;;;;;;;;;20.32;41.18;100499.75;5039072;28;960;-92
2022/05/12 18:13:04;;;;;;;;;;;;;;;20.44;43.10;100496.97;5021288;28;1961;-92
2022/05/12 18:15:29;;;;;;;;;;;;;;;20.40;43.58;100496.06;5040568;28;1850;-92
2022/05/12 18:17:56;;;;;;;;;;;;;;;20.34;44.05;100495.47;5040260;28;1283;-91
2022/05/12 18:20:22;;;;;;;;;;;;;;;19.99;45.25;100506.13;5040817;28;1920;-93
2022/05/12 18:22:48;;;;;;;;;;;;;;;19.96;45.64;100500.47;5021042;28;1098;-92
2022/05/12 18:25:13;;;;;;;;;;;;;;;19.98;46.16;100515.66;5021317;28;1343;-93
2022/05/12 18:27:38;;;;;;;;;;;;;;;19.95;48.21;100518.28;5038141;28;1219;-93
2022/05/12 18:30:05;;;;;;;;;;;;;;;19.71;48.28;100505.16;5020796;28;977;-93
2022/05/12 18:32:30;;;;;;;;;;;;;;;19.79;48.69;100509.00;5000100;28;1250;-93
2022/05/12 18:34:55;;;;;;;;;;;;;;;19.57;49.59;100512.94;5001729;28;1882;-93
2022/05/12 18:37:24;;;;;;;;;;;;;;;19.34;49.60;100511.63;5004381;28;1787;-93
2022/05/12 18:39:49;;;;;;;;;;;;;;;19.32;49.73;100511.16;4998987;28;1458;-93
2022/05/12 18:42:14;;;;;;;;;;;;;;;19.24;54.95;100508.13;5002020;28;713;-93
2022/05/12 18:44:39;;;;;;;;;;;;;;;19.16;52.22;100497.91;5017958;28;957;-93
2022/05/12 18:47:05;;;;;;;;;;;;;;;19.12;49.88;100498.94;5032423;28;1854;-93
2022/05/12 18:49:30;;;;;;;;;;;;;;;19.23;49.75;100511.22;5060900;28;814;-91
2022/05/12 18:51:55;;;;;;;;;;;;;;;19.19;51.07;100508.34;5031024;28;1364;-93
2022/05/12 18:54:21;;;;;;;;;;;;;;;19.13;51.16;100517.19;5035785;28;1898;-91
2022/05/12 18:56:47;;;;;;;;;;;;;;;18.84;52.16;100523.56;5035403;28;1240;-91
2022/05/12 18:59:15;;;;;;;;;;;;;;;18.84;52.62;100520.81;5031810;28;1720;-91
2022/05/12 19:01:40;;;;;;;;;;;;;;;18.72;54.03;100520.69;5025425;28;1238;-90
2022/05/12 19:04:06;;;;;;;;;;;;;;;18.76;52.78;100528.03;5009375;28;1230;-92
2022/05/12 19:06:31;;;;;;;;;;;;;;;18.41;54.65;100527.34;5018248;28;1755;-91
2022/05/12 19:08:58;;;;;;;;;;;;;;;18.41;55.13;100534.84;4997418;28;1221;-92
2022/05/12 19:11:24;;;;;;;;;;;;;;;18.47;54.46;100531.56;5015355;28;1217;-92
2022/05/12 19:13:50;;;;;;;;;;;;;;;18.46;54.41;100535.47;5014802;28;1957;-90
2022/05/12 19:16:15;;;;;;;;;;;;;;;18.54;54.32;100540.16;5015067;28;1316;-92
2022/05/12 19:18:40;;;;;;;;;;;;;;;18.46;53.85;100541.00;5014839;28;1365;-91
2022/05/12 19:21:05;;;;;;;;;;;;;;;18.46;53.54;100549.31;5008522;28;1527;-91
2022/05/12 19:23:31;;;;;;;;;;;;;;;18.01;54.75;100557.28;5012466;28;1341;-91
2022/05/12 19:25:56;;;;;;;;;;;;;;;18.10;56.19;100557.28;5015074;28;1256;-91
2022/05/12 19:28:21;;;;;;;;;;;;;;;17.90;56.61;100561.53;5005297;28;1274;-91
2022/05/12 19:30:47;;;;;;;;;;;;;;;17.48;58.05;100563.16;4999005;28;1126;-91
2022/05/12 19:33:13;;;;;;;;;;;;;;;17.82;55.69;100567.91;5019819;28;1898;-91
2022/05/12 19:35:38;;;;;;;;;;;;;;;17.99;56.69;100567.06;5035638;28;1068;-91
2022/05/12 19:38:07;;;;;;;;;;;;;;;17.98;56.15;100569.03;5016046;28;1391;-91
2022/05/12 19:40:34;;;;;;;;;;;;;;;17.13;57.62;100570.59;5018405;28;1343;-91
2022/05/12 19:43:00;;;;;;;;;;;;;;;17.36;57.43;100569.31;5035885;28;805;-91
2022/05/12 19:45:25;;;;;;;;;;;;;;;17.55;57.68;100571.78;5017981;28;1217;-91
2022/05/12 19:47:51;;;;;;;;;;;;;;;17.60;56.80;100562.53;5035728;28;1284;-92
2022/05/12 19:50:16;;;;;;;;;;;;;;;17.64;55.49;100575.41;5024972;28;1374;-92
2022/05/12 19:52:42;;;;;;;;;;;;;;;17.56;55.89;100573.41;5037753;28;1965;-90
2022/05/12 19:55:07;;;;;;;;;;;;;;;17.15;57.09;100573.06;5037485;28;1365;-91
2022/05/12 19:57:33;;;;;;;;;;;;;;;17.20;57.25;100570.13;5036222;28;1372;-90
2022/05/12 19:59:58;;;;;;;;;;;;;;;17.25;58.44;100579.09;5017851;28;1194;-90
2022/05/12 20:02:23;;;;;;;;;;;;;;;17.03;59.02;100574.47;5017789;28;1201;-91
2022/05/12 20:04:48;;;;;;;;;;;;;;;16.45;61.30;100577.50;5034774;28;1291;-90
2022/05/12 20:07:15;;;;;;;;;;;;;;;15.88;62.65;100579.28;5006332;28;1633;-91
2022/05/12 20:09:40;;;;;;;;;;;;;;;16.23;62.11;100585.84;5013884;28;1636;-90
2022/05/12 20:12:05;;;;;;;;;;;;;;;16.49;61.27;100594.28;5017911;28;1432;-90
2022/05/12 20:14:31;;;;;;;;;;;;;;;16.08;62.22;100586.22;5042025;28;1894;-90
2022/05/12 20:16:57;;;;;;;;;;;;;;;16.13;61.32;100597.13;5026448;28;1358;-90
2022/05/12 20:19:23;;;;;;;;;;;;;;;15.81;61.50;100601.81;5029631;28;1787;-89
2022/05/12 20:21:48;;;;;;;;;;;;;;;16.09;61.13;100602.47;5016705;28;1646;-89
2022/05/12 20:24:14;;;;;;;;;;;;;;;16.07;60.75;100602.00;5034730;28;1060;-90
2022/05/12 20:26:40;;;;;;;;;;;;;;;16.29;60.13;100601.13;5034045;28;1271;-91
2022/05/12 20:29:06;;;;;;;;;;;;;;;16.19;61.08;100601.41;5024418;28;1601;-92
2022/05/12 20:36:34;;;;;;;;;;;;;;;15.71;61.18;100602.03;5016207;28;1444;-91
2022/05/12 20:38:59;;;;;;;;;;;;;;;15.44;61.98;100596.56;5009227;28;1380;-91
2022/05/12 20:41:24;;;;;;;;;;;;;;;15.61;61.34;100593.16;5015837;28;1282;-89
2022/05/12 20:43:49;;;;;;;;;;;;;;;15.82;60.69;100595.13;4997955;28;1269;-90
2022/05/12 20:46:15;;;;;;;;;;;;;;;15.82;61.07;100586.06;4996846;28;1671;-89
2022/05/12 20:48:44;;;;;;;;;;;;;;;15.78;60.94;100590.56;5001822;28;1474;-90
2022/05/12 20:51:12;;;;;;;;;;;;;;;15.76;60.59;100590.88;4997960;28;1472;-90
2022/05/12 20:53:37;;;;;;;;;;;;;;;15.46;61.09;100594.31;4997740;28;1981;-89
2022/05/12 20:56:03;;;;;;;;;;;;;;;15.07;62.20;100597.66;5015343;28;805;-90
2022/05/12 20:58:30;;;;;;;;;;;;;;;15.31;61.24;100600.19;4997766;28;1312;-90
2022/05/12 21:00:57;;;;;;;;;;;;;;;14.31;65.22;100605.44;4997182;28;1386;-90
2022/05/12 21:03:22;;;;;;;;;;;;;;;14.09;65.13;100612.72;5014957;28;857;-90
2022/05/12 21:05:48;;;;;;;;;;;;;;;13.78;66.74;100610.44;4997515;28;1319;-89
2022/05/12 21:08:14;;;;;;;;;;;;;;;13.83;65.99;100606.81;5015145;28;853;-89
2022/05/12 21:10:39;;;;;;;;;;;;;;;14.43;63.64;100609.66;4996772;28;1454;-90
2022/05/12 21:13:04;;;;;;;;;;;;;;;14.57;62.86;100608.56;5010888;28;1898;-90
2022/05/12 21:15:30;;;;;;;;;;;;;;;14.76;62.21;100602.97;5003677;28;1511;-89
2022/05/12 21:17:55;;;;;;;;;;;;;;;14.47;62.26;100610.69;5000783;28;1258;-90
2022/05/12 21:20:21;;;;;;;;;;;;;;;14.79;62.35;100604.31;5010746;28;1797;-90
2022/05/12 21:22:46;;;;;;;;;;;;;;;14.84;61.63;100607.78;4996964;28;1478;-90
2022/05/12 21:25:12;;;;;;;;;;;;;;;14.56;61.40;100615.19;4997474;28;1347;-90
2022/05/12 21:27:37;;;;;;;;;;;;;;;14.35;61.82;100620.25;4997233;28;1197;-89
2022/05/12 21:30:03;;;;;;;;;;;;;;;14.12;63.37;100612.91;5019321;28;1426;-88
2022/05/12 21:32:28;;;;;;;;;;;;;;;14.24;63.30;100609.69;5017035;28;1225;-89
2022/05/12 21:34:53;;;;;;;;;;;;;;;14.51;61.23;100611.72;4995849;28;1878;-89
2022/05/12 21:37:18;;;;;;;;;;;;;;;14.24;62.76;100609.69;4997040;28;1221;-89
2022/05/12 21:39:43;;;;;;;;;;;;;;;14.22;61.36;100609.19;5002653;28;1377;-90
2022/05/12 21:42:09;;;;;;;;;;;;;;;14.20;62.50;100606.75;4997938;28;1788;-89
2022/05/12 21:44:34;;;;;;;;;;;;;;;13.89;63.24;100608.34;5002509;28;1288;-90
2022/05/12 21:46:59;;;;;;;;;;;;;;;13.89;63.41;100611.09;5027357;28;1111;-89
2022/05/12 21:49:24;;;;;;;;;;;;;;;13.70;62.76;100611.13;5003235;28;1795;-88
2022/05/12 21:51:49;;;;;;;;;;;;;;;13.63;63.25;100608.75;5016087;28;1394;-89
2022/05/12 21:54:14;;;;;;;;;;;;;;;13.67;63.90;100605.41;5018643;28;1910;-88
2022/05/12 21:56:40;;;;;;;;;;;;;;;13.39;64.18;100608.00;4998514;28;1374;-89
2022/05/12 22:01:50;;;;;;;;;;;;;;;12.89;66.57;100598.47;5008295;28;1586;-89
2022/05/12 22:04:19;;;;;;;;;;;;;;;13.34;64.57;100601.78;4996888;28;852;-89
2022/05/12 22:06:46;;;;;;;;;;;;;;;13.75;62.77;100594.56;4993223;28;1402;-88
2022/05/12 22:09:17;;;;;;;;;;;;;;;13.72;62.07;100600.66;4993212;28;1373;-89
2022/05/12 22:14:26;;;;;;;;;;;;;;;13.06;64.27;100598.00;5016594;28;1956;-88
2022/05/12 22:16:52;;;;;;;;;;;;;;;13.16;64.59;100597.91;4996185;28;1028;-88
2022/05/12 22:19:17;;;;;;;;;;;;;;;13.47;63.85;100601.03;4996342;28;1254;-88
2022/05/12 22:21:42;;;;;;;;;;;;;;;13.57;63.22;100596.19;4986045;28;1379;-89
2022/05/12 22:24:08;;;;;;;;;;;;;;;13.62;62.11;100601.63;5013362;28;1802;-89
2022/05/12 22:26:34;;;;;;;;;;;;;;;13.57;63.10;100607.22;4997517;28;1410;-89
2022/05/12 22:28:59;;;;;;;;;;;;;;;13.44;61.89;100604.38;5013239;28;1578;-89
2022/05/12 22:31:24;;;;;;;;;;;;;;;13.44;62.04;100605.19;5013357;28;1610;-89
2022/05/12 22:33:49;;;;;;;;;;;;;;;13.49;62.51;100605.13;5017001;28;1902;-90
2022/05/12 22:36:15;;;;;;;;;;;;;;;13.28;63.64;100603.75;5028857;28;1671;-89